createdAt,value
2022-11-06T00:03:12.883Z,3.72
2022-11-06T00:07:14.644Z,3.78
2022-11-06T00:11:17.619Z,3.81
2022-11-06T00:15:19.166Z,3.87
2022-11-06T00:19:20.659Z,3.79
2022-11-06T00:23:22.088Z,3.82
2022-11-06T00:27:23.519Z,3.86
2022-11-06T00:31:30.691Z,3.75
2022-11-06T00:35:32.105Z,3.66
2022-11-06T00:39:33.633Z,3.70
2022-11-06T00:43:35.893Z,3.74
2022-11-06T00:47:37.316Z,3.71
2022-11-06T00:51:41.322Z,3.52
2022-11-06T00:55:42.722Z,3.67
2022-11-06T00:59:44.159Z,3.68
2022-11-06T01:03:47.624Z,3.56
2022-11-06T01:07:49.182Z,3.61
2022-11-06T01:16:16.279Z,3.68
2022-11-06T01:20:20.758Z,3.77
2022-11-06T01:24:26.061Z,3.61
2022-11-06T01:28:28.193Z,3.58
2022-11-06T01:32:29.613Z,3.65
2022-11-06T01:36:31.806Z,3.61
2022-11-06T01:40:41.155Z,3.75
2022-11-06T01:44:42.490Z,3.71
2022-11-06T01:48:48.784Z,3.65
2022-11-06T01:52:51.539Z,3.64
2022-11-06T01:56:56.221Z,3.64
2022-11-06T02:00:57.966Z,3.64
2022-11-06T02:04:59.424Z,3.52
2022-11-06T02:09:01.719Z,3.52
2022-11-06T02:13:15.100Z,3.65
2022-11-06T02:17:44.374Z,3.58
2022-11-06T02:22:05.888Z,3.54
2022-11-06T02:26:29.029Z,3.61
2022-11-06T02:30:41.478Z,3.65
2022-11-06T02:34:44.443Z,3.64
2022-11-06T02:38:56.493Z,3.60
2022-11-06T02:43:01.310Z,3.72
2022-11-06T02:47:06.781Z,3.65
2022-11-06T02:51:12.459Z,3.56
2022-11-06T02:55:22.978Z,3.65
2022-11-06T02:59:40.176Z,3.73
2022-11-06T03:03:48.113Z,3.83
2022-11-06T03:08:03.500Z,3.72
2022-11-06T03:12:19.300Z,3.72
2022-11-06T03:17:00.797Z,3.80
2022-11-06T03:21:13.046Z,3.73
2022-11-06T03:25:22.069Z,3.76
2022-11-06T03:29:43.577Z,3.62
2022-11-06T03:33:57.285Z,3.40
2022-11-06T03:38:05.257Z,3.43
2022-11-06T03:42:12.144Z,3.43
2022-11-06T03:46:19.337Z,3.34
2022-11-06T03:50:35.069Z,3.33
2022-11-06T03:54:42.750Z,3.38
2022-11-06T03:58:46.992Z,3.22
2022-11-06T04:03:20.298Z,3.27
2022-11-06T04:07:26.202Z,3.34
2022-11-06T04:11:48.171Z,3.31
2022-11-06T04:15:53.829Z,3.36
2022-11-06T04:20:02.829Z,3.29
2022-11-06T04:24:35.106Z,3.25
2022-11-06T04:28:48.292Z,3.19
2022-11-06T04:33:10.138Z,3.25
2022-11-06T04:37:22.642Z,3.23
2022-11-06T04:41:34.515Z,3.21
2022-11-06T04:45:41.332Z,3.04
2022-11-06T04:49:44.513Z,2.96
2022-11-06T04:53:49.097Z,2.91
2022-11-06T04:57:50.874Z,2.85
2022-11-06T05:01:52.487Z,2.79
2022-11-06T05:05:53.860Z,2.80
2022-11-06T05:09:55.228Z,2.86
2022-11-06T05:13:56.642Z,2.95
2022-11-06T05:17:58.681Z,2.95
2022-11-06T05:22:18.697Z,2.95
2022-11-06T05:26:20.118Z,2.84
2022-11-06T05:30:21.966Z,2.81
2022-11-06T05:34:23.356Z,2.81
2022-11-06T05:38:24.804Z,2.79
2022-11-06T05:42:26.282Z,2.80
2022-11-06T05:46:47.604Z,2.89
2022-11-06T05:50:49.180Z,2.69
2022-11-06T05:54:50.636Z,2.76
2022-11-06T05:58:52.098Z,2.66
2022-11-06T06:02:53.527Z,2.78
2022-11-06T06:06:54.955Z,2.70
2022-11-06T06:10:56.347Z,2.71
2022-11-06T06:14:57.678Z,2.75
2022-11-06T06:18:59.184Z,2.68
2022-11-06T06:23:00.829Z,2.72
2022-11-06T06:27:02.266Z,2.85
2022-11-06T06:31:05.686Z,2.85
2022-11-06T06:35:07.395Z,2.86
2022-11-06T06:39:08.766Z,2.77
2022-11-06T06:43:10.277Z,2.82
2022-11-06T06:47:11.650Z,2.90
2022-11-06T06:51:13.078Z,2.89
2022-11-06T06:55:14.469Z,3.00
2022-11-06T06:59:15.874Z,3.06
2022-11-06T07:03:17.293Z,3.14
2022-11-06T07:07:18.767Z,3.26
2022-11-06T07:11:20.158Z,3.38
2022-11-06T07:15:21.523Z,3.40
2022-11-06T07:19:23.064Z,3.51
2022-11-06T07:23:24.440Z,3.69
2022-11-06T07:27:26.945Z,3.66
2022-11-06T07:31:30.500Z,3.85
2022-11-06T07:35:34.281Z,4.02
2022-11-06T07:39:35.699Z,4.03
2022-11-06T07:43:37.606Z,4.19
2022-11-06T07:47:39.065Z,4.37
2022-11-06T07:51:40.478Z,4.63
2022-11-06T07:55:48.628Z,4.57
2022-11-06T07:59:50.011Z,4.91
2022-11-06T08:03:51.366Z,4.81
2022-11-06T08:07:56.676Z,5.13
2022-11-06T08:11:58.137Z,5.28
2022-11-06T08:16:03.782Z,5.31
2022-11-06T08:20:05.816Z,5.49
2022-11-06T08:24:08.382Z,5.83
2022-11-06T08:28:10.554Z,6.13
2022-11-06T08:32:12.230Z,5.97
2022-11-06T08:36:13.825Z,6.37
2022-11-06T08:40:15.235Z,6.16
2022-11-06T08:44:16.699Z,6.46
2022-11-06T08:48:18.489Z,6.67
2022-11-06T08:52:19.906Z,6.82
2022-11-06T08:56:21.345Z,6.80
2022-11-06T09:00:23.528Z,6.80
2022-11-06T09:04:24.976Z,6.91
2022-11-06T09:08:26.782Z,7.08
2022-11-06T09:12:28.204Z,7.48
2022-11-06T09:16:29.698Z,7.87
2022-11-06T09:20:31.205Z,8.10
2022-11-06T09:25:01.394Z,7.83
2022-11-06T09:28:53.960Z,7.82
2022-11-06T09:32:57.914Z,8.15
2022-11-06T09:37:02.121Z,8.21
2022-11-06T09:41:04.676Z,7.96
2022-11-06T09:45:16.013Z,8.02
2022-11-06T09:49:34.718Z,8.06
2022-11-06T09:53:42.561Z,8.32
2022-11-06T09:57:50.862Z,8.47
2022-11-06T10:01:58.069Z,8.42
2022-11-06T10:05:59.637Z,8.50
2022-11-06T10:10:04.066Z,8.72
2022-11-06T10:14:36.042Z,8.96
2022-11-06T10:18:56.008Z,8.65
2022-11-06T10:23:05.550Z,8.68
2022-11-06T10:27:16.860Z,9.22
2022-11-06T10:31:39.304Z,8.98
2022-11-06T10:35:47.100Z,8.77
2022-11-06T10:39:49.592Z,9.37
2022-11-06T10:44:01.208Z,9.24
2022-11-06T10:48:18.383Z,9.07
2022-11-06T10:52:48.555Z,9.76
2022-11-06T10:57:11.724Z,10.22
2022-11-06T11:01:14.989Z,10.31
2022-11-06T11:05:19.168Z,9.83
2022-11-06T11:09:27.949Z,10.73
2022-11-06T11:13:29.673Z,10.92
2022-11-06T11:17:31.193Z,10.03
2022-11-06T11:21:34.576Z,9.90
2022-11-06T11:25:36.113Z,10.59
2022-11-06T11:29:50.427Z,10.46
2022-11-06T11:33:55.758Z,10.58
2022-11-06T11:38:11.956Z,11.24
2022-11-06T11:42:31.781Z,10.56
2022-11-06T11:46:33.849Z,10.57
2022-11-06T11:50:35.999Z,10.94
2022-11-06T11:54:38.166Z,10.78
2022-11-06T11:58:39.724Z,10.73
2022-11-06T12:02:44.690Z,10.85
2022-11-06T12:06:56.708Z,11.32
2022-11-06T12:11:03.605Z,10.82
2022-11-06T12:15:17.269Z,11.65
2022-11-06T12:19:21.321Z,11.24
2022-11-06T12:23:22.649Z,11.71
2022-11-06T12:27:33.140Z,11.24
2022-11-06T12:31:46.744Z,11.44
2022-11-06T12:36:07.888Z,11.59
2022-11-06T12:40:25.656Z,11.05
2022-11-06T12:44:27.291Z,11.47
2022-11-06T12:48:48.262Z,11.42
2022-11-06T12:53:27.122Z,11.54
2022-11-06T12:57:53.426Z,12.24
2022-11-06T13:02:17.065Z,12.14
2022-11-06T13:06:35.891Z,11.30
2022-11-06T13:10:48.349Z,12.17
2022-11-06T13:15:23.273Z,12.51
2022-11-06T13:19:33.316Z,12.35
2022-11-06T13:23:43.057Z,12.17
2022-11-06T13:28:01.918Z,12.25
2022-11-06T13:32:11.355Z,12.84
2022-11-06T13:36:13.895Z,12.70
2022-11-06T13:40:27.113Z,12.97
2022-11-06T13:44:29.810Z,12.96
2022-11-06T13:48:41.442Z,12.18
2022-11-06T13:52:54.516Z,12.33
2022-11-06T13:57:32.499Z,12.54
2022-11-06T14:01:43.103Z,12.08
2022-11-06T14:05:51.059Z,12.11
2022-11-06T14:09:53.088Z,11.82
2022-11-06T14:14:03.389Z,12.06
2022-11-06T14:18:05.682Z,11.92
2022-11-06T14:22:45.330Z,12.20
2022-11-06T14:26:49.338Z,11.62
2022-11-06T14:31:11.524Z,12.23
2022-11-06T14:35:31.002Z,12.24
2022-11-06T14:39:51.198Z,12.30
2022-11-06T14:43:59.726Z,11.98
2022-11-06T14:48:02.031Z,11.84
2022-11-06T14:52:08.188Z,11.98
2022-11-06T14:56:12.199Z,11.61
2022-11-06T15:00:33.032Z,11.41
2022-11-06T15:04:35.311Z,11.06
2022-11-06T15:09:01.601Z,10.66
2022-11-06T15:13:22.962Z,10.60
2022-11-06T15:17:26.848Z,10.34
2022-11-06T15:21:34.626Z,10.24
2022-11-06T15:25:45.655Z,10.08
2022-11-06T15:29:51.908Z,9.95
2022-11-06T15:34:07.582Z,9.97
2022-11-06T15:38:19.560Z,9.77
2022-11-06T15:42:32.760Z,9.60
2022-11-06T15:47:03.483Z,9.52
2022-11-06T15:51:24.575Z,9.49
2022-11-06T15:55:34.980Z,9.35
2022-11-06T15:59:36.340Z,9.11
2022-11-06T16:03:52.162Z,8.95
2022-11-06T16:07:53.689Z,8.69
2022-11-06T16:11:55.976Z,8.62
2022-11-06T16:16:00.558Z,8.61
2022-11-06T16:20:04.214Z,8.50
2022-11-06T16:24:15.507Z,8.58
2022-11-06T16:28:20.297Z,8.47
2022-11-06T16:32:25.887Z,8.44
2022-11-06T16:36:29.878Z,8.45
2022-11-06T16:40:50.091Z,8.30
2022-11-06T16:45:00.315Z,8.30
2022-11-06T16:49:54.010Z,8.37
2022-11-06T16:53:57.201Z,8.24
2022-11-06T16:58:01.982Z,8.21
2022-11-06T17:02:04.418Z,8.10
2022-11-06T17:06:06.911Z,8.01
2022-11-06T17:10:35.394Z,7.85
2022-11-06T17:14:37.018Z,8.00
2022-11-06T17:18:39.226Z,7.93
2022-11-06T17:22:40.625Z,7.68
2022-11-06T17:26:47.924Z,7.71
2022-11-06T17:30:49.673Z,7.58
2022-11-06T17:34:51.033Z,7.70
2022-11-06T17:38:56.677Z,7.58
2022-11-06T17:42:58.107Z,7.65
2022-11-06T17:46:59.494Z,7.54
2022-11-06T17:51:19.534Z,7.47
2022-11-06T17:55:20.951Z,7.58
2022-11-06T17:59:23.866Z,7.56
2022-11-06T18:03:25.425Z,7.36
2022-11-06T18:07:26.944Z,7.35
2022-11-06T18:11:29.002Z,7.30
2022-11-06T18:15:34.182Z,7.29
2022-11-06T18:19:35.774Z,7.28
2022-11-06T18:23:37.543Z,7.19
2022-11-06T18:27:38.970Z,7.07
2022-11-06T18:31:41.161Z,7.02
2022-11-06T18:35:42.696Z,6.98
2022-11-06T18:39:44.106Z,6.93
2022-11-06T18:43:45.999Z,6.93
2022-11-06T18:47:47.451Z,6.89
2022-11-06T18:51:48.903Z,6.72
2022-11-06T18:55:50.464Z,6.67
2022-11-06T18:59:51.912Z,6.65
2022-11-06T19:03:53.590Z,6.64
2022-11-06T19:08:00.033Z,6.67
2022-11-06T19:12:02.213Z,6.55
2022-11-06T19:16:04.870Z,6.49
2022-11-06T19:20:08.588Z,6.34
2022-11-06T19:24:15.021Z,6.43
2022-11-06T19:28:17.607Z,6.27
2022-11-06T19:32:19.065Z,6.22
2022-11-06T19:36:20.523Z,6.19
2022-11-06T19:40:22.005Z,6.23
2022-11-06T19:44:23.548Z,6.25
2022-11-06T19:48:24.930Z,6.11
2022-11-06T19:52:41.345Z,6.05
2022-11-06T19:57:27.029Z,6.10
2022-11-06T20:01:13.181Z,6.20
2022-11-06T20:05:14.705Z,6.05
2022-11-06T20:09:16.135Z,5.98
2022-11-06T20:13:17.732Z,6.11
2022-11-06T20:17:19.987Z,6.00
2022-11-06T20:21:22.623Z,5.98
2022-11-06T20:25:24.160Z,6.03
2022-11-06T20:29:26.045Z,5.93
2022-11-06T20:33:27.452Z,5.87
2022-11-06T20:37:29.389Z,5.80
2022-11-06T20:41:30.999Z,5.74
2022-11-06T20:45:37.672Z,5.78
2022-11-06T20:49:43.387Z,5.74
2022-11-06T20:53:45.884Z,5.75
2022-11-06T20:57:47.878Z,5.83
2022-11-06T21:01:49.582Z,5.86
2022-11-06T21:05:51.228Z,5.78
2022-11-06T21:09:52.821Z,5.81
2022-11-06T21:13:55.392Z,5.91
2022-11-06T21:17:56.761Z,5.79
2022-11-06T21:21:58.776Z,5.82
2022-11-06T21:26:08.133Z,5.88
2022-11-06T21:30:13.774Z,5.90
2022-11-06T21:34:15.250Z,5.84
2022-11-06T21:38:16.975Z,5.83
2022-11-06T21:42:18.387Z,5.92
2022-11-06T21:46:21.141Z,5.83
2022-11-06T21:50:29.530Z,5.83
2022-11-06T21:54:50.286Z,5.73
2022-11-06T21:58:52.476Z,5.76
2022-11-06T22:02:53.878Z,5.80
2022-11-06T22:06:55.263Z,5.81
2022-11-06T22:10:56.658Z,5.75
2022-11-06T22:14:58.018Z,5.71
2022-11-06T22:18:59.702Z,5.71
2022-11-06T22:23:01.082Z,5.81
2022-11-06T22:27:02.440Z,5.84
2022-11-06T22:31:04.259Z,5.87
2022-11-06T22:35:05.763Z,5.90
2022-11-06T22:39:09.022Z,5.92
2022-11-06T22:43:10.647Z,5.83
2022-11-06T22:47:12.289Z,5.96
2022-11-06T22:51:16.258Z,5.95
2022-11-06T22:55:17.606Z,6.03
2022-11-06T22:59:21.089Z,5.89
2022-11-06T23:03:23.655Z,5.95
2022-11-06T23:07:25.098Z,5.83
2022-11-06T23:11:28.432Z,5.82
2022-11-06T23:15:30.021Z,5.78
2022-11-06T23:19:31.894Z,5.79
2022-11-06T23:23:33.243Z,5.81
2022-11-06T23:27:35.677Z,5.73
2022-11-06T23:31:37.090Z,5.71
2022-11-06T23:35:38.443Z,5.68
2022-11-06T23:39:39.840Z,5.69
2022-11-06T23:43:41.229Z,5.52
2022-11-06T23:47:42.590Z,5.64
2022-11-06T23:51:43.911Z,5.81
2022-11-06T23:55:45.249Z,5.64
2022-11-06T23:59:47.366Z,5.69
